sensor_id;sensor_type;location;lat;lon;timestamp;P1;durP1;ratioP1;P2;durP2;ratioP2
50363;SDS011;36272;59.400;17.982;2022-11-11T06:34:37;8.55;;;1.60;;
50363;SDS011;36272;59.400;17.982;2022-11-11T06:39:59;6.38;;;1.70;;
50363;SDS011;36272;59.400;17.982;2022-11-11T06:45:28;7.35;;;1.60;;
50363;SDS011;36272;59.400;17.982;2022-11-11T06:50:49;10.25;;;1.98;;
50363;SDS011;36272;59.400;17.982;2022-11-11T06:56:20;8.88;;;2.40;;
50363;SDS011;36272;59.400;17.982;2022-11-11T07:01:21;6.50;;;1.67;;
50363;SDS011;36272;59.400;17.982;2022-11-11T07:33:01;10.00;;;2.08;;
50363;SDS011;36272;59.400;17.982;2022-11-11T07:49:21;7.95;;;2.42;;
50363;SDS011;36272;59.400;17.982;2022-11-11T08:11:13;12.98;;;2.70;;
50363;SDS011;36272;59.400;17.982;2022-11-11T08:16:31;14.40;;;2.58;;
50363;SDS011;36272;59.400;17.982;2022-11-11T08:27:13;19.33;;;2.88;;
50363;SDS011;36272;59.400;17.982;2022-11-11T10:27:26;12.93;;;3.53;;
50363;SDS011;36272;59.400;17.982;2022-11-11T10:33:41;15.93;;;3.65;;
50363;SDS011;36272;59.400;17.982;2022-11-11T10:39:04;13.13;;;3.13;;
50363;SDS011;36272;59.400;17.982;2022-11-11T10:45:13;18.60;;;3.58;;
50363;SDS011;36272;59.400;17.982;2022-11-11T11:08:36;15.88;;;2.83;;
50363;SDS011;36272;59.400;17.982;2022-11-11T11:13:52;13.68;;;2.78;;
50363;SDS011;36272;59.400;17.982;2022-11-11T13:33:55;11.63;;;1.77;;
50363;SDS011;36272;59.400;17.982;2022-11-11T15:45:20;12.95;;;2.30;;
50363;SDS011;36272;59.400;17.982;2022-11-11T15:50:39;8.10;;;2.15;;
50363;SDS011;36272;59.400;17.982;2022-11-11T15:55:50;9.90;;;2.65;;
50363;SDS011;36272;59.400;17.982;2022-11-11T16:38:48;12.30;;;2.58;;
50363;SDS011;36272;59.400;17.982;2022-11-11T16:55:38;15.93;;;2.40;;
50363;SDS011;36272;59.400;17.982;2022-11-11T17:00:45;10.02;;;2.38;;
50363;SDS011;36272;59.400;17.982;2022-11-11T17:05:52;8.20;;;2.10;;
50363;SDS011;36272;59.400;17.982;2022-11-11T17:10:57;12.05;;;2.40;;
50363;SDS011;36272;59.400;17.982;2022-11-11T17:16:05;7.80;;;1.73;;
50363;SDS011;36272;59.400;17.982;2022-11-11T17:26:21;9.00;;;2.30;;
50363;SDS011;36272;59.400;17.982;2022-11-11T17:31:23;6.55;;;2.22;;
50363;SDS011;36272;59.400;17.982;2022-11-11T17:36:31;8.90;;;2.40;;
50363;SDS011;36272;59.400;17.982;2022-11-11T17:41:47;12.80;;;2.40;;
50363;SDS011;36272;59.400;17.982;2022-11-11T17:46:52;9.67;;;2.47;;
50363;SDS011;36272;59.400;17.982;2022-11-11T17:51:54;13.73;;;2.83;;
50363;SDS011;36272;59.400;17.982;2022-11-11T17:56:55;13.20;;;2.40;;
50363;SDS011;36272;59.400;17.982;2022-11-11T18:01:59;13.50;;;2.50;;
50363;SDS011;36272;59.400;17.982;2022-11-11T18:07:30;15.77;;;2.90;;
50363;SDS011;36272;59.400;17.982;2022-11-11T18:12:35;10.80;;;2.50;;
50363;SDS011;36272;59.400;17.982;2022-11-11T18:23:14;13.00;;;3.00;;
50363;SDS011;36272;59.400;17.982;2022-11-11T18:28:22;14.15;;;3.33;;
50363;SDS011;36272;59.400;17.982;2022-11-11T18:33:26;17.48;;;3.58;;
50363;SDS011;36272;59.400;17.982;2022-11-11T18:38:28;23.52;;;7.05;;
50363;SDS011;36272;59.400;17.982;2022-11-11T18:43:48;19.35;;;3.80;;
50363;SDS011;36272;59.400;17.982;2022-11-11T18:49:15;22.25;;;3.97;;
50363;SDS011;36272;59.400;17.982;2022-11-11T18:54:29;19.70;;;3.85;;
50363;SDS011;36272;59.400;17.982;2022-11-11T19:07:04;23.58;;;3.72;;
50363;SDS011;36272;59.400;17.982;2022-11-11T19:18:19;12.85;;;3.60;;
50363;SDS011;36272;59.400;17.982;2022-11-11T19:34:08;23.35;;;4.28;;
50363;SDS011;36272;59.400;17.982;2022-11-11T19:39:13;19.10;;;3.38;;
50363;SDS011;36272;59.400;17.982;2022-11-11T19:44:21;16.30;;;3.23;;
50363;SDS011;36272;59.400;17.982;2022-11-11T19:49:56;17.93;;;3.50;;
50363;SDS011;36272;59.400;17.982;2022-11-11T19:55:00;16.55;;;3.55;;
50363;SDS011;36272;59.400;17.982;2022-11-11T20:00:04;17.75;;;3.80;;
50363;SDS011;36272;59.400;17.982;2022-11-11T20:05:09;18.63;;;3.72;;
50363;SDS011;36272;59.400;17.982;2022-11-11T20:10:14;17.38;;;3.28;;
50363;SDS011;36272;59.400;17.982;2022-11-11T20:15:20;17.40;;;3.85;;
50363;SDS011;36272;59.400;17.982;2022-11-11T20:20:22;22.08;;;3.78;;
50363;SDS011;36272;59.400;17.982;2022-11-11T20:25:24;16.95;;;3.30;;
50363;SDS011;36272;59.400;17.982;2022-11-11T20:30:34;21.50;;;3.65;;
50363;SDS011;36272;59.400;17.982;2022-11-11T20:35:45;21.80;;;3.10;;
50363;SDS011;36272;59.400;17.982;2022-11-11T20:40:47;14.30;;;2.65;;
50363;SDS011;36272;59.400;17.982;2022-11-11T20:45:48;19.38;;;3.30;;
50363;SDS011;36272;59.400;17.982;2022-11-11T20:51:33;16.20;;;3.25;;
50363;SDS011;36272;59.400;17.982;2022-11-11T20:56:35;17.60;;;3.25;;
50363;SDS011;36272;59.400;17.982;2022-11-11T21:01:41;19.00;;;3.60;;
50363;SDS011;36272;59.400;17.982;2022-11-11T21:06:43;19.35;;;3.17;;
50363;SDS011;36272;59.400;17.982;2022-11-11T21:11:51;14.70;;;2.78;;
50363;SDS011;36272;59.400;17.982;2022-11-11T21:16:52;15.87;;;2.87;;
50363;SDS011;36272;59.400;17.982;2022-11-11T21:21:54;17.15;;;3.35;;
50363;SDS011;36272;59.400;17.982;2022-11-11T21:26:58;15.90;;;3.65;;
50363;SDS011;36272;59.400;17.982;2022-11-11T21:32:06;16.52;;;3.08;;
50363;SDS011;36272;59.400;17.982;2022-11-11T21:37:07;11.88;;;3.08;;
50363;SDS011;36272;59.400;17.982;2022-11-11T21:42:09;17.65;;;3.08;;
50363;SDS011;36272;59.400;17.982;2022-11-11T21:47:13;15.70;;;3.20;;
50363;SDS011;36272;59.400;17.982;2022-11-11T21:52:19;15.98;;;2.85;;
50363;SDS011;36272;59.400;17.982;2022-11-11T21:57:23;13.23;;;2.97;;
50363;SDS011;36272;59.400;17.982;2022-11-11T22:02:25;14.43;;;2.97;;
50363;SDS011;36272;59.400;17.982;2022-11-11T22:07:33;12.43;;;2.92;;
50363;SDS011;36272;59.400;17.982;2022-11-11T22:12:43;23.67;;;3.10;;
50363;SDS011;36272;59.400;17.982;2022-11-11T22:17:45;11.52;;;3.17;;
50363;SDS011;36272;59.400;17.982;2022-11-11T22:22:47;13.68;;;2.60;;
50363;SDS011;36272;59.400;17.982;2022-11-11T22:27:53;14.38;;;2.70;;
50363;SDS011;36272;59.400;17.982;2022-11-11T22:32:55;19.13;;;3.03;;
50363;SDS011;36272;59.400;17.982;2022-11-11T22:37:57;16.85;;;2.42;;
50363;SDS011;36272;59.400;17.982;2022-11-11T22:42:58;17.13;;;2.55;;
50363;SDS011;36272;59.400;17.982;2022-11-11T22:48:00;10.30;;;2.47;;
50363;SDS011;36272;59.400;17.982;2022-11-11T22:53:02;12.77;;;2.30;;
50363;SDS011;36272;59.400;17.982;2022-11-11T22:58:03;13.02;;;2.30;;
50363;SDS011;36272;59.400;17.982;2022-11-11T23:03:05;13.60;;;2.58;;
50363;SDS011;36272;59.400;17.982;2022-11-11T23:08:07;10.93;;;2.85;;
50363;SDS011;36272;59.400;17.982;2022-11-11T23:13:08;15.45;;;2.67;;
50363;SDS011;36272;59.400;17.982;2022-11-11T23:18:10;15.85;;;2.47;;
50363;SDS011;36272;59.400;17.982;2022-11-11T23:23:11;10.65;;;2.50;;
50363;SDS011;36272;59.400;17.982;2022-11-11T23:28:13;13.27;;;2.78;;
50363;SDS011;36272;59.400;17.982;2022-11-11T23:33:15;14.15;;;2.70;;
50363;SDS011;36272;59.400;17.982;2022-11-11T23:38:16;10.23;;;2.10;;
50363;SDS011;36272;59.400;17.982;2022-11-11T23:43:18;10.90;;;2.35;;
50363;SDS011;36272;59.400;17.982;2022-11-11T23:48:23;18.60;;;2.63;;
50363;SDS011;36272;59.400;17.982;2022-11-11T23:53:26;12.48;;;2.60;;
50363;SDS011;36272;59.400;17.982;2022-11-11T23:58:27;11.02;;;2.83;;
